createdAt,value
2023-05-14T00:00:24.471Z,100020.78
2023-05-14T00:02:55.364Z,100019.81
2023-05-14T00:05:26.097Z,100012.66
2023-05-14T00:07:56.798Z,100012.50
2023-05-14T00:10:28.170Z,100019.31
2023-05-14T00:12:58.794Z,100011.53
2023-05-14T00:15:30.296Z,100007.97
2023-05-14T00:18:01.824Z,100009.63
2023-05-14T00:20:33.478Z,100001.59
2023-05-14T00:23:04.102Z,100003.41
2023-05-14T00:25:34.555Z,100009.47
2023-05-14T00:28:05.695Z,100005.06
2023-05-14T00:30:36.483Z,100004.22
2023-05-14T00:33:07.087Z,100006.84
2023-05-14T00:35:37.570Z,99996.19
2023-05-14T00:38:09.193Z,99998.81
2023-05-14T00:40:39.759Z,99965.59
2023-05-14T00:43:10.181Z,99954.72
2023-05-14T00:45:41.527Z,99947.28
2023-05-14T00:48:12.043Z,99950.88
2023-05-14T00:50:43.509Z,99947.16
2023-05-14T00:55:58.583Z,99963.25
2023-05-14T00:58:32.618Z,99951.50
2023-05-14T01:03:50.627Z,99958.75
2023-05-14T01:06:54.463Z,99956.53
2023-05-14T01:09:47.935Z,99948.34
2023-05-14T01:12:36.278Z,99943.63
2023-05-14T01:15:16.855Z,99953.41
2023-05-14T01:17:58.642Z,99940.13
2023-05-14T01:20:32.324Z,99946.72
2023-05-14T01:23:02.871Z,99951.88
2023-05-14T01:25:33.977Z,99950.84
2023-05-14T01:28:13.730Z,99939.75
2023-05-14T01:31:03.612Z,99941.84
2023-05-14T01:33:37.625Z,99939.94
2023-05-14T01:36:08.863Z,99947.69
2023-05-14T01:38:41.996Z,99936.53
2023-05-14T01:41:12.707Z,99956.56
2023-05-14T01:43:44.757Z,99969.16
2023-05-14T01:48:58.417Z,99965.94
2023-05-14T01:51:29.486Z,99962.94
2023-05-14T01:54:00.219Z,99963.28
2023-05-14T01:56:30.813Z,99958.28
2023-05-14T01:59:08.855Z,99960.59
2023-05-14T02:01:39.494Z,99971.09
2023-05-14T02:06:53.519Z,99974.16
2023-05-14T02:09:30.693Z,99970.50
2023-05-14T02:12:01.259Z,99960.69
2023-05-14T02:14:50.425Z,99962.31
2023-05-14T02:17:20.951Z,99966.19
2023-05-14T02:30:43.866Z,99958.41
2023-05-14T02:33:17.792Z,99963.78
2023-05-14T02:35:48.498Z,99960.69
2023-05-14T02:41:05.616Z,99944.41
2023-05-14T02:46:19.192Z,99948.09
2023-05-14T02:54:18.618Z,99946.03
2023-05-14T02:56:50.802Z,99935.22
2023-05-14T02:59:24.689Z,99931.47
2023-05-14T03:01:55.927Z,99935.53
2023-05-14T03:04:33.823Z,99929.28
2023-05-14T03:07:08.146Z,99927.31
2023-05-14T03:09:38.618Z,99929.09
2023-05-14T03:17:36.462Z,99906.75
2023-05-14T03:20:08.492Z,99895.41
2023-05-14T03:25:22.071Z,99901.81
2023-05-14T03:27:52.559Z,99907.25
2023-05-14T13:48:51.389Z,99777.72
2023-05-14T15:02:12.965Z,99807.34
2023-05-14T16:12:26.485Z,99802.31
2023-05-14T16:33:56.787Z,99804.84
2023-05-14T18:14:45.741Z,99708.69
2023-05-14T18:43:05.221Z,99692.03
2023-05-14T19:46:01.611Z,99654.34
2023-05-14T20:08:09.784Z,99696.16
2023-05-14T20:37:05.714Z,99686.31
2023-05-14T22:14:17.197Z,99764.19
2023-05-14T23:04:52.004Z,99836.13
